Villard, MN (56385)

2:38 AM CDT on September 02, 2015 (GMT -0500)
Hoboken | | Change Station
CLOSE
Current Station
Personal Weather Station
Location: Sauk Centre, MN
Elevation: 1293 ft
Nearby Weather Stations

Elev 1293 ft 45.74 °N, 94.97 °W | Updated 1 minute ago

Partly Cloudy
Partly Cloudy
71.1 °F
Feels Like 71.1 °F
N
0.0
Wind Variable Wind from WNW

Today
High -- | Low -- °F
--% Chance of Precip.
Yesterday
High -- | Low -- °F
Precip. -- in
6:42 AM 7:56 PM
Waning Gibbous, 82% visible
Pressure 29.90 in
Visibility 7.0 miles
Clouds Scattered Clouds 1200 ft
Scattered Clouds 12000 ft
Dew Point 70 °F
Humidity 96%
Rainfall 0.00 in
Snow Depth Not available.
UV 0 out of 12
Pollen 9.80 out of 12
Air Quality Not available.
Flu Activity Not available.
METAR KD39 020734Z AUTO 00000KT 7SM SCT012 SCT120 21/20 A2990 RMK AO2 LTG DSNT E AND SE T02100203
Pressure 29.90 in
Visibility 7.0 miles
Clouds Scattered Clouds 1200 ft
Scattered Clouds 12000 ft
Dew Point 70 °F
Humidity 96%
Rainfall 0.00 in
Snow Depth Not available.
UV 0 out of 12
Pollen 9.80 out of 12
Air Quality Not available.
Flu Activity Not available.
METAR KD39 020734Z AUTO 00000KT 7SM SCT012 SCT120 21/20 A2990 RMK AO2 LTG DSNT E AND SE T02100203

10-Day Weather Forecast

×

Almanac

Astronomy

Sep. 02, 2015 Rise Set
Actual Time
Civil Twilight
Nautical Twilight
Astronomical Twilight
Moon
Length of Visible Light
Length of Day
Tomorrow will be .
, % of the Moon is Illuminated

Today's Extremes

State Highs State Lows

Community

WunderPhotos

Upload Photos

1,851,723 photos uploaded!

WunderBlogs® & News

Nearby

Air Quality

  Air Quality AQ Index Pollutant
Not available.

Snow Depth

Station Depth Elevation

Earthquake Activity

City Distance Mag. Time & Date
Minimum magnitude displayed is 2.5.

Coastal Water Temperatures

Place Temperature

Stations

Nearby Weather Stations

Station Location Temp. Windchill Dew Point Humidity Wind Precip. Elev Updated Type